BAW673 EIDW-EGLL
Flight info
| Callsign | BAW673 |
|---|---|
| Flight time | 0h 58m |
| Altitude | 35000 |
| Route | PESIT4E PESIT DCT BAKUR DCT ECCIT DCT GUBJE DCT GISOK DCT TACQI DCT FONZU DCT ELRIP DCT OTMET OTMET1H |
| Aircraft | A35K/H-SDE2E3GHIJ3J4J5LM1ORWXY/LB1D1 |
Departure
| Time | 2026-05-04 12:57 |
|---|---|
| Airport | Dublin Airport (EIDW) |
Arrival
| Time | 2026-05-04 13:55 |
|---|---|
| Airport | London Heathrow Airport (EGLL) |
| Time | Latitude | Longitude | Altitude | Speed | Heading |
|---|---|---|---|---|---|
| 2026-05-04 12:32 | 53.42576 | -6.26031 | 217 ft | 0 kts | 5° |
| 2026-05-04 12:47 | 53.42568 | -6.26031 | 217 ft | 4 kts | 21° |
| 2026-05-04 12:48 | 53.42557 | -6.26055 | 220 ft | 4 kts | 63° |
| 2026-05-04 12:48 | 53.42547 | -6.26068 | 222 ft | 4 kts | 5° |
| 2026-05-04 12:48 | 53.42522 | -6.26073 | 220 ft | 4 kts | 22° |
| 2026-05-04 12:48 | 53.42507 | -6.26102 | 222 ft | 3 kts | 95° |
| 2026-05-04 12:49 | 53.42510 | -6.26144 | 224 ft | 4 kts | 95° |
| 2026-05-04 12:49 | 53.42512 | -6.26177 | 222 ft | 0 kts | 95° |
| 2026-05-04 12:50 | 53.42512 | -6.26176 | 222 ft | 1 kts | 95° |
| 2026-05-04 12:51 | 53.42509 | -6.26134 | 222 ft | 7 kts | 96° |
| 2026-05-04 12:51 | 53.42503 | -6.26023 | 224 ft | 11 kts | 95° |
| 2026-05-04 12:51 | 53.42474 | -6.25892 | 224 ft | 13 kts | 139° |
| 2026-05-04 12:51 | 53.42414 | -6.25905 | 227 ft | 10 kts | 214° |
| 2026-05-04 12:52 | 53.42356 | -6.26002 | 225 ft | 14 kts | 226° |
| 2026-05-04 12:52 | 53.42288 | -6.26144 | 224 ft | 17 kts | 243° |
| 2026-05-04 12:52 | 53.42270 | -6.26360 | 217 ft | 20 kts | 274° |
| 2026-05-04 12:52 | 53.42280 | -6.26546 | 222 ft | 17 kts | 275° |
| 2026-05-04 12:53 | 53.42292 | -6.26758 | 218 ft | 20 kts | 275° |
| 2026-05-04 12:53 | 53.42306 | -6.27019 | 220 ft | 24 kts | 275° |
| 2026-05-04 12:53 | 53.42319 | -6.27269 | 217 ft | 8 kts | 275° |
| 2026-05-04 12:53 | 53.42325 | -6.27369 | 219 ft | 11 kts | 275° |
| 2026-05-04 12:54 | 53.42334 | -6.27517 | 217 ft | 15 kts | 275° |
| 2026-05-04 12:54 | 53.42344 | -6.27710 | 217 ft | 18 kts | 275° |
| 2026-05-04 12:54 | 53.42357 | -6.27942 | 220 ft | 21 kts | 275° |
| 2026-05-04 12:54 | 53.42371 | -6.28207 | 224 ft | 22 kts | 276° |
| 2026-05-04 12:55 | 53.42386 | -6.28472 | 217 ft | 23 kts | 275° |
| 2026-05-04 12:55 | 53.42401 | -6.28741 | 217 ft | 21 kts | 275° |
| 2026-05-04 12:55 | 53.42406 | -6.28971 | 223 ft | 20 kts | 255° |
| 2026-05-04 12:55 | 53.42318 | -6.29070 | 221 ft | 15 kts | 183° |
| 2026-05-04 12:56 | 53.42242 | -6.28967 | 225 ft | 16 kts | 105° |
| 2026-05-04 12:56 | 53.42231 | -6.28860 | 222 ft | 0 kts | 94° |
| 2026-05-04 12:56 | 53.42229 | -6.28816 | 219 ft | 23 kts | 94° |
| 2026-05-04 12:56 | 53.42188 | -6.28020 | 218 ft | 109 kts | 95° |
| 2026-05-04 12:57 | 53.42095 | -6.26420 | 394 ft | 158 kts | 94° |
| 2026-05-04 12:57 | 53.41983 | -6.24451 | 991 ft | 183 kts | 94° |
| 2026-05-04 12:57 | 53.41863 | -6.22186 | 1550 ft | 196 kts | 93° |
| 2026-05-04 12:57 | 53.41737 | -6.19880 | 2205 ft | 204 kts | 93° |
| 2026-05-04 12:58 | 53.41604 | -6.17427 | 2856 ft | 223 kts | 92° |
| 2026-05-04 12:58 | 53.41459 | -6.14735 | 3495 ft | 240 kts | 93° |
| 2026-05-04 12:58 | 53.41301 | -6.11856 | 4111 ft | 255 kts | 93° |
| 2026-05-04 12:58 | 53.41063 | -6.08874 | 4751 ft | 262 kts | 102° |
| 2026-05-04 12:59 | 53.40212 | -6.06183 | 5395 ft | 266 kts | 133° |
| 2026-05-04 12:59 | 53.38617 | -6.04592 | 6064 ft | 268 kts | 164° |
| 2026-05-04 12:59 | 53.36809 | -6.03961 | 6685 ft | 271 kts | 171° |
| 2026-05-04 12:59 | 53.34938 | -6.03463 | 7298 ft | 274 kts | 171° |
| 2026-05-04 13:00 | 53.33648 | -6.03116 | 7729 ft | 276 kts | 171° |
| 2026-05-04 13:00 | 53.31657 | -6.02560 | 8390 ft | 279 kts | 170° |
| 2026-05-04 13:00 | 53.29730 | -6.02046 | 9036 ft | 282 kts | 173° |
| 2026-05-04 13:00 | 53.27763 | -6.02212 | 9710 ft | 286 kts | 193° |
| 2026-05-04 13:01 | 53.25831 | -6.03117 | 10348 ft | 293 kts | 198° |
| 2026-05-04 13:01 | 53.23833 | -6.04169 | 10947 ft | 310 kts | 198° |
| 2026-05-04 13:01 | 53.21743 | -6.05261 | 11552 ft | 327 kts | 197° |
| 2026-05-04 13:01 | 53.19465 | -6.06315 | 12180 ft | 344 kts | 191° |
| 2026-05-04 13:02 | 53.17039 | -6.06876 | 12816 ft | 359 kts | 186° |
| 2026-05-04 13:02 | 53.14540 | -6.07288 | 13456 ft | 372 kts | 185° |
| 2026-05-04 13:02 | 53.11897 | -6.07550 | 14096 ft | 379 kts | 179° |
| 2026-05-04 13:02 | 53.09286 | -6.06925 | 14700 ft | 381 kts | 166° |
| 2026-05-04 13:03 | 53.06724 | -6.05782 | 15314 ft | 382 kts | 163° |
| 2026-05-04 13:03 | 53.04160 | -6.04580 | 15944 ft | 385 kts | 163° |
| 2026-05-04 13:03 | 53.01572 | -6.03377 | 16586 ft | 388 kts | 163° |
| 2026-05-04 13:03 | 52.98958 | -6.02174 | 17237 ft | 391 kts | 163° |
| 2026-05-04 13:04 | 52.96341 | -6.00976 | 17906 ft | 395 kts | 163° |
| 2026-05-04 13:04 | 52.93678 | -5.99762 | 18562 ft | 398 kts | 163° |
| 2026-05-04 13:04 | 52.90996 | -5.98544 | 19152 ft | 401 kts | 163° |
| 2026-05-04 13:04 | 52.88288 | -5.97316 | 19746 ft | 405 kts | 163° |
| 2026-05-04 13:05 | 52.85555 | -5.96079 | 20371 ft | 409 kts | 163° |
| 2026-05-04 13:05 | 52.82800 | -5.94835 | 21005 ft | 412 kts | 162° |
| 2026-05-04 13:05 | 52.80022 | -5.93581 | 21660 ft | 416 kts | 162° |
| 2026-05-04 13:05 | 52.77220 | -5.92318 | 22324 ft | 420 kts | 161° |
| 2026-05-04 13:06 | 52.74386 | -5.91042 | 23001 ft | 425 kts | 161° |
| 2026-05-04 13:06 | 52.71516 | -5.89752 | 23687 ft | 429 kts | 161° |
| 2026-05-04 13:06 | 52.68620 | -5.88452 | 24270 ft | 434 kts | 161° |
| 2026-05-04 13:06 | 52.65692 | -5.87140 | 24866 ft | 438 kts | 161° |
| 2026-05-04 13:07 | 52.62732 | -5.85815 | 25474 ft | 443 kts | 161° |
| 2026-05-04 13:07 | 52.59743 | -5.84480 | 26100 ft | 447 kts | 160° |
| 2026-05-04 13:07 | 52.56726 | -5.83134 | 26751 ft | 451 kts | 160° |
| 2026-05-04 13:07 | 52.53685 | -5.81778 | 27407 ft | 455 kts | 160° |
| 2026-05-04 13:08 | 52.50615 | -5.80412 | 28071 ft | 459 kts | 159° |
| 2026-05-04 13:08 | 52.47520 | -5.79038 | 28747 ft | 462 kts | 159° |
| 2026-05-04 13:08 | 52.44405 | -5.77657 | 29446 ft | 465 kts | 159° |
| 2026-05-04 13:08 | 52.41278 | -5.76273 | 30164 ft | 466 kts | 159° |
| 2026-05-04 13:09 | 52.38144 | -5.74880 | 30819 ft | 467 kts | 158° |
| 2026-05-04 13:09 | 52.35026 | -5.73413 | 31435 ft | 466 kts | 158° |
| 2026-05-04 13:09 | 52.31928 | -5.71897 | 32070 ft | 465 kts | 157° |
| 2026-05-04 13:09 | 52.28873 | -5.70384 | 32726 ft | 463 kts | 157° |
| 2026-05-04 13:10 | 52.25754 | -5.68848 | 33410 ft | 462 kts | 158° |
| 2026-05-04 13:10 | 52.22622 | -5.67614 | 34093 ft | 463 kts | 162° |
| 2026-05-04 13:10 | 52.19476 | -5.66549 | 34649 ft | 462 kts | 163° |
| 2026-05-04 13:10 | 52.16329 | -5.65436 | 34974 ft | 464 kts | 160° |
| 2026-05-04 13:11 | 52.13253 | -5.63788 | 35056 ft | 469 kts | 154° |
| 2026-05-04 13:11 | 52.07501 | -5.58500 | 35050 ft | 482 kts | 143° |
| 2026-05-04 13:12 | 52.01746 | -5.52863 | 35053 ft | 484 kts | 149° |
| 2026-05-04 13:12 | 51.95746 | -5.47902 | 35048 ft | 484 kts | 150° |
| 2026-05-04 13:13 | 51.89691 | -5.43117 | 35050 ft | 484 kts | 151° |
| 2026-05-04 13:13 | 51.83623 | -5.38381 | 35041 ft | 484 kts | 151° |
| 2026-05-04 13:14 | 51.77553 | -5.33645 | 35039 ft | 484 kts | 151° |
| 2026-05-04 13:14 | 51.71491 | -5.28917 | 35040 ft | 484 kts | 151° |
| 2026-05-04 13:15 | 51.65429 | -5.24198 | 35038 ft | 484 kts | 152° |
| 2026-05-04 13:15 | 51.59361 | -5.19490 | 35035 ft | 483 kts | 152° |
| 2026-05-04 13:16 | 51.53307 | -5.14797 | 35036 ft | 483 kts | 151° |
| 2026-05-04 13:16 | 51.47756 | -5.08870 | 35029 ft | 478 kts | 138° |
| 2026-05-04 13:17 | 51.42716 | -5.01928 | 35029 ft | 478 kts | 137° |
| 2026-05-04 13:17 | 51.37742 | -4.94838 | 35026 ft | 478 kts | 136° |
| 2026-05-04 13:18 | 51.32832 | -4.87869 | 35026 ft | 478 kts | 137° |
| 2026-05-04 13:18 | 51.27840 | -4.80847 | 35026 ft | 478 kts | 137° |
| 2026-05-04 13:19 | 51.22841 | -4.73857 | 35021 ft | 478 kts | 137° |
| 2026-05-04 13:19 | 51.17845 | -4.66894 | 35020 ft | 476 kts | 137° |
| 2026-05-04 13:20 | 51.12858 | -4.59962 | 35020 ft | 476 kts | 137° |
| 2026-05-04 13:20 | 51.07867 | -4.53045 | 35013 ft | 476 kts | 137° |
| 2026-05-04 13:21 | 51.03371 | -4.45375 | 35012 ft | 474 kts | 124° |
| 2026-05-04 13:21 | 50.99843 | -4.36556 | 35009 ft | 473 kts | 120° |
| 2026-05-04 13:22 | 50.96484 | -4.27564 | 35006 ft | 473 kts | 120° |
| 2026-05-04 13:22 | 50.93133 | -4.18576 | 35004 ft | 474 kts | 120° |
| 2026-05-04 13:23 | 50.89743 | -4.09588 | 34995 ft | 475 kts | 120° |
| 2026-05-04 13:23 | 50.86334 | -4.00618 | 34996 ft | 475 kts | 121° |
| 2026-05-04 13:24 | 50.82983 | -3.91608 | 34996 ft | 475 kts | 116° |
| 2026-05-04 13:24 | 50.80553 | -3.81933 | 34551 ft | 475 kts | 109° |
| 2026-05-04 13:25 | 50.78446 | -3.71970 | 33466 ft | 480 kts | 108° |
| 2026-05-04 13:25 | 50.77413 | -3.66951 | 32901 ft | 481 kts | 109° |
| 2026-05-04 13:25 | 50.76376 | -3.61937 | 32352 ft | 482 kts | 109° |
| 2026-05-04 13:25 | 50.75325 | -3.56896 | 31911 ft | 482 kts | 109° |
| 2026-05-04 13:26 | 50.74269 | -3.51870 | 31520 ft | 483 kts | 110° |
| 2026-05-04 13:26 | 50.73207 | -3.46849 | 31140 ft | 483 kts | 110° |
| 2026-05-04 13:26 | 50.72137 | -3.41818 | 30778 ft | 483 kts | 110° |
| 2026-05-04 13:26 | 50.71065 | -3.36795 | 30475 ft | 483 kts | 110° |
| 2026-05-04 13:27 | 50.69988 | -3.31764 | 30184 ft | 483 kts | 111° |
| 2026-05-04 13:27 | 50.68911 | -3.26742 | 29836 ft | 483 kts | 111° |
| 2026-05-04 13:27 | 50.67832 | -3.21726 | 29477 ft | 483 kts | 111° |
| 2026-05-04 13:27 | 50.66753 | -3.16724 | 29138 ft | 481 kts | 111° |
| 2026-05-04 13:28 | 50.65677 | -3.11744 | 28779 ft | 479 kts | 111° |
| 2026-05-04 13:28 | 50.64609 | -3.06787 | 28453 ft | 477 kts | 111° |
| 2026-05-04 13:28 | 50.63799 | -3.01720 | 28123 ft | 478 kts | 102° |
| 2026-05-04 13:28 | 50.63512 | -2.96509 | 27796 ft | 479 kts | 92° |
| 2026-05-04 13:29 | 50.63801 | -2.91273 | 27471 ft | 480 kts | 84° |
| 2026-05-04 13:29 | 50.64356 | -2.86087 | 27157 ft | 479 kts | 83° |
| 2026-05-04 13:29 | 50.64939 | -2.80924 | 27014 ft | 478 kts | 83° |
| 2026-05-04 13:29 | 50.65518 | -2.75775 | 27001 ft | 478 kts | 83° |
| 2026-05-04 13:30 | 50.66093 | -2.70625 | 27007 ft | 479 kts | 83° |
| 2026-05-04 13:30 | 50.66667 | -2.65449 | 27003 ft | 479 kts | 83° |
| 2026-05-04 13:30 | 50.67238 | -2.60274 | 27004 ft | 479 kts | 83° |
| 2026-05-04 13:30 | 50.67802 | -2.55093 | 27002 ft | 479 kts | 83° |
| 2026-05-04 13:31 | 50.68087 | -2.49888 | 27002 ft | 475 kts | 93° |
| 2026-05-04 13:31 | 50.67955 | -2.44695 | 26829 ft | 473 kts | 96° |
| 2026-05-04 13:31 | 50.67733 | -2.39527 | 26480 ft | 472 kts | 97° |
| 2026-05-04 13:31 | 50.67504 | -2.34379 | 26125 ft | 470 kts | 97° |
| 2026-05-04 13:32 | 50.67277 | -2.29242 | 25762 ft | 469 kts | 97° |
| 2026-05-04 13:32 | 50.67051 | -2.24120 | 25417 ft | 468 kts | 97° |
| 2026-05-04 13:32 | 50.66826 | -2.19000 | 25068 ft | 467 kts | 97° |
| 2026-05-04 13:32 | 50.66677 | -2.15632 | 24851 ft | 466 kts | 97° |
| 2026-05-04 13:33 | 50.66451 | -2.10544 | 24510 ft | 464 kts | 97° |
| 2026-05-04 13:33 | 50.66225 | -2.05485 | 24178 ft | 462 kts | 96° |
| 2026-05-04 13:33 | 50.66120 | -2.00295 | 23844 ft | 462 kts | 92° |
| 2026-05-04 13:33 | 50.66167 | -1.95239 | 23500 ft | 460 kts | 91° |
| 2026-05-04 13:34 | 50.66235 | -1.90207 | 23122 ft | 458 kts | 91° |
| 2026-05-04 13:34 | 50.66299 | -1.85204 | 22688 ft | 455 kts | 91° |
| 2026-05-04 13:34 | 50.66359 | -1.80230 | 22308 ft | 453 kts | 91° |
| 2026-05-04 13:34 | 50.66414 | -1.75292 | 21935 ft | 450 kts | 91° |
| 2026-05-04 13:35 | 50.66466 | -1.70378 | 21567 ft | 447 kts | 91° |
| 2026-05-04 13:35 | 50.66564 | -1.60572 | 21019 ft | 442 kts | 91° |
| 2026-05-04 13:35 | 50.66801 | -1.55746 | 20998 ft | 444 kts | 82° |
| 2026-05-04 13:36 | 50.67731 | -1.51103 | 20905 ft | 445 kts | 68° |
| 2026-05-04 13:36 | 50.69052 | -1.46699 | 20471 ft | 445 kts | 65° |
| 2026-05-04 13:36 | 50.70426 | -1.42344 | 19945 ft | 442 kts | 65° |
| 2026-05-04 13:36 | 50.71786 | -1.38011 | 19419 ft | 438 kts | 65° |
| 2026-05-04 13:37 | 50.73123 | -1.33718 | 18909 ft | 435 kts | 65° |
| 2026-05-04 13:37 | 50.74446 | -1.29443 | 18406 ft | 431 kts | 66° |
| 2026-05-04 13:37 | 50.75901 | -1.25323 | 17846 ft | 430 kts | 57° |
| 2026-05-04 13:37 | 50.77943 | -1.21908 | 17291 ft | 428 kts | 39° |
| 2026-05-04 13:38 | 50.80379 | -1.19221 | 16742 ft | 425 kts | 34° |
| 2026-05-04 13:38 | 50.82853 | -1.16699 | 16202 ft | 422 kts | 33° |
| 2026-05-04 13:38 | 50.85312 | -1.14193 | 15669 ft | 419 kts | 33° |
| 2026-05-04 13:38 | 50.87750 | -1.11693 | 15148 ft | 415 kts | 33° |
| 2026-05-04 13:39 | 50.90163 | -1.09207 | 14634 ft | 413 kts | 33° |
| 2026-05-04 13:39 | 50.92568 | -1.06722 | 14128 ft | 411 kts | 33° |
| 2026-05-04 13:39 | 50.94954 | -1.04250 | 13605 ft | 408 kts | 33° |
| 2026-05-04 13:39 | 50.97318 | -1.01797 | 13048 ft | 405 kts | 33° |
| 2026-05-04 13:40 | 50.99649 | -0.99329 | 12497 ft | 401 kts | 36° |
| 2026-05-04 13:40 | 51.01715 | -0.96392 | 11979 ft | 397 kts | 47° |
| 2026-05-04 13:40 | 51.03562 | -0.93162 | 11441 ft | 393 kts | 49° |
| 2026-05-04 13:40 | 51.05362 | -0.89932 | 10917 ft | 388 kts | 49° |
| 2026-05-04 13:41 | 51.07145 | -0.86735 | 10407 ft | 384 kts | 49° |
| 2026-05-04 13:41 | 51.08912 | -0.83573 | 9900 ft | 381 kts | 49° |
| 2026-05-04 13:41 | 51.10655 | -0.80453 | 9348 ft | 372 kts | 49° |
| 2026-05-04 13:42 | 51.14010 | -0.74446 | 8298 ft | 355 kts | 49° |
| 2026-05-04 13:42 | 51.15623 | -0.71556 | 8057 ft | 342 kts | 49° |
| 2026-05-04 13:42 | 51.17122 | -0.68866 | 8034 ft | 306 kts | 49° |
| 2026-05-04 13:42 | 51.18483 | -0.66429 | 8036 ft | 289 kts | 49° |
| 2026-05-04 13:43 | 51.19807 | -0.64049 | 8013 ft | 285 kts | 49° |
| 2026-05-04 13:43 | 51.21136 | -0.61653 | 8026 ft | 284 kts | 49° |
| 2026-05-04 13:43 | 51.22444 | -0.59295 | 8008 ft | 282 kts | 49° |
| 2026-05-04 13:43 | 51.23725 | -0.56987 | 8026 ft | 266 kts | 49° |
| 2026-05-04 13:44 | 51.24914 | -0.54842 | 8026 ft | 254 kts | 49° |
| 2026-05-04 13:44 | 51.26080 | -0.52736 | 8024 ft | 253 kts | 49° |
| 2026-05-04 13:44 | 51.27243 | -0.50636 | 8009 ft | 252 kts | 49° |
| 2026-05-04 13:44 | 51.28402 | -0.48538 | 8021 ft | 252 kts | 49° |
| 2026-05-04 13:45 | 51.29526 | -0.46397 | 8004 ft | 251 kts | 56° |
| 2026-05-04 13:45 | 51.30246 | -0.43877 | 8018 ft | 250 kts | 73° |
| 2026-05-04 13:45 | 51.30732 | -0.41213 | 8005 ft | 250 kts | 76° |
| 2026-05-04 13:45 | 51.31189 | -0.38525 | 7875 ft | 250 kts | 76° |
| 2026-05-04 13:46 | 51.31642 | -0.35825 | 7397 ft | 256 kts | 76° |
| 2026-05-04 13:46 | 51.32099 | -0.33086 | 6820 ft | 253 kts | 76° |
| 2026-05-04 13:46 | 51.32546 | -0.30407 | 6294 ft | 248 kts | 76° |
| 2026-05-04 13:46 | 51.32981 | -0.27753 | 5726 ft | 244 kts | 76° |
| 2026-05-04 13:47 | 51.33402 | -0.25147 | 5172 ft | 241 kts | 76° |
| 2026-05-04 13:47 | 51.33814 | -0.22565 | 4616 ft | 237 kts | 76° |
| 2026-05-04 13:47 | 51.34217 | -0.20025 | 4050 ft | 234 kts | 76° |
| 2026-05-04 13:47 | 51.34610 | -0.17511 | 3509 ft | 232 kts | 76° |
| 2026-05-04 13:48 | 51.35105 | -0.15097 | 3093 ft | 227 kts | 59° |
| 2026-05-04 13:48 | 51.36193 | -0.13429 | 2984 ft | 210 kts | 25° |
| 2026-05-04 13:48 | 51.37556 | -0.12929 | 2989 ft | 194 kts | 4° |
| 2026-05-04 13:48 | 51.38866 | -0.12860 | 3008 ft | 184 kts | 1° |
| 2026-05-04 13:49 | 51.40140 | -0.12858 | 2994 ft | 184 kts | 1° |
| 2026-05-04 13:49 | 51.41418 | -0.12863 | 2983 ft | 184 kts | 1° |
| 2026-05-04 13:49 | 51.42706 | -0.12864 | 2977 ft | 185 kts | 0° |
| 2026-05-04 13:49 | 51.43994 | -0.12867 | 2980 ft | 185 kts | 1° |
| 2026-05-04 13:50 | 51.45283 | -0.12900 | 2981 ft | 186 kts | 357° |
| 2026-05-04 13:50 | 51.46470 | -0.13687 | 2986 ft | 188 kts | 322° |
| 2026-05-04 13:50 | 51.47334 | -0.15245 | 2975 ft | 190 kts | 297° |
| 2026-05-04 13:50 | 51.47738 | -0.17253 | 2991 ft | 190 kts | 280° |
| 2026-05-04 13:51 | 51.47815 | -0.19358 | 3012 ft | 188 kts | 271° |
| 2026-05-04 13:51 | 51.47821 | -0.21364 | 2860 ft | 173 kts | 272° |
| 2026-05-04 13:51 | 51.47826 | -0.23269 | 2616 ft | 170 kts | 271° |
| 2026-05-04 13:51 | 51.47820 | -0.25159 | 2373 ft | 170 kts | 271° |
| 2026-05-04 13:52 | 51.47814 | -0.27697 | 2053 ft | 170 kts | 271° |
| 2026-05-04 13:52 | 51.47809 | -0.29592 | 1826 ft | 169 kts | 271° |
| 2026-05-04 13:52 | 51.47802 | -0.31502 | 1581 ft | 159 kts | 272° |
| 2026-05-04 13:53 | 51.47798 | -0.33227 | 1388 ft | 156 kts | 271° |
| 2026-05-04 13:53 | 51.47793 | -0.34958 | 1179 ft | 155 kts | 270° |
| 2026-05-04 13:53 | 51.47786 | -0.36685 | 957 ft | 155 kts | 271° |
| 2026-05-04 13:54 | 51.47765 | -0.40147 | 536 ft | 154 kts | 270° |
| 2026-05-04 13:54 | 51.47758 | -0.41850 | 319 ft | 152 kts | 271° |
| 2026-05-04 13:54 | 51.47760 | -0.45192 | 103 ft | 148 kts | 272° |
| 2026-05-04 13:55 | 51.47756 | -0.46644 | 102 ft | 80 kts | 270° |
| 2026-05-04 13:55 | 51.47710 | -0.47369 | 95 ft | 14 kts | 210° |
| 2026-05-04 13:55 | 51.47653 | -0.47388 | 95 ft | 0 kts | 181° |
| 2026-05-04 13:56 | 51.47638 | -0.47386 | 95 ft | 4 kts | 174° |
| 2026-05-04 13:57 | 51.47603 | -0.47356 | 96 ft | 7 kts | 130° |
| 2026-05-04 13:57 | 51.47584 | -0.47262 | 95 ft | 11 kts | 95° |
| 2026-05-04 13:58 | 51.47471 | -0.46912 | 95 ft | 15 kts | 165° |
| 2026-05-04 13:58 | 51.47281 | -0.46871 | 94 ft | 16 kts | 178° |
| 2026-05-04 13:58 | 51.47163 | -0.46870 | 94 ft | 17 kts | 180° |
| 2026-05-04 13:59 | 51.47064 | -0.46869 | 94 ft | 15 kts | 180° |
| 2026-05-04 13:59 | 51.47004 | -0.46872 | 94 ft | 3 kts | 192° |
| 2026-05-04 13:59 | 51.46988 | -0.46957 | 94 ft | 6 kts | 272° |
| 2026-05-04 14:00 | 51.46988 | -0.46991 | 95 ft | 2 kts | 269° |
| 2026-05-04 14:00 | 51.46988 | -0.47005 | 94 ft | 0 kts | 269° |